Time;durP1;ratioP1;P1;durP2;ratioP2;P2;SDS_P1;SDS_P2;PMS_P1;PMS_P2;Temp;Humidity;BMP_temperature;BMP_pressure;BME280_temperature;BME280_humidity;BME280_pressure;Samples;Min_cycle;Max_cycle;Signal;HPM_P1;HPM_P2
2023/10/15 00:01:30;;;;;;;;;;;;;;;;;;4992220;28;19917;-89
2023/10/15 00:03:56;;;;;;;;;;;;;;;;;;4990959;28;19968;-89
2023/10/15 00:06:23;;;;;;;;;;;;;;;;;;4991098;28;19914;-89
2023/10/15 00:08:50;;;;;;;;;;;;;;;;;;5010891;28;20446;-88
2023/10/15 00:11:21;;;;;;;;;;;;;;;;;;4993113;28;19921;-88
2023/10/15 00:13:47;;;;;;;;;;;;;;;;;;4991194;28;20688;-90
2023/10/15 00:16:13;;;;;;;;;;;;;;;;;;4992220;28;19928;-89
2023/10/15 00:18:40;;;;;;;;;;;;;;;;;;4990761;28;19936;-89
2023/10/15 00:21:12;;;;;;;;;;;;;;;;;;4997229;28;20367;-89
2023/10/15 00:23:38;;;;;;;;;;;;;;;;;;5013130;28;19917;-89
2023/10/15 00:26:04;;;;;;;;;;;;;;;;;;5013925;28;20362;-89
2023/10/15 00:28:30;;;;;;;;;;;;;;;;;;5010367;28;19916;-89
2023/10/15 00:30:56;;;;;;;;;;;;;;;;;;5011806;28;19910;-88
2023/10/15 00:33:22;;;;;;;;;;;;;;;;;;5012344;28;19917;-89
2023/10/15 00:35:49;;;;;;;;;;;;;;;;;;5012740;28;19921;-89
2023/10/15 00:38:24;;;;;;;;;;;;;;;;;;5013521;28;20126;-90
2023/10/15 00:40:53;;;;;;;;;;;;;;;;;;5022887;28;20293;-90
2023/10/15 00:43:19;;;;;;;;;;;;;;;;;;5008452;28;19999;-91
2023/10/15 00:45:46;;;;;;;;;;;;;;;;;;5009542;28;20285;-90
2023/10/15 00:48:13;;;;;;;;;;;;;;;;;;5012082;28;19913;-93
2023/10/15 00:50:38;;;;;;;;;;;;;;;;;;5011061;28;19957;-93
2023/10/15 00:53:06;;;;;;;;;;;;;;;;;;5030604;28;20169;-92
2023/10/15 00:55:35;;;;;;;;;;;;;;;;;;5011007;28;19944;-94
2023/10/15 00:58:07;;;;;;;;;;;;;;;;;;5008706;28;19916;-91
2023/10/15 01:00:52;;;;;;;;;;;;;;;;;;5010642;28;19921;-93
2023/10/15 01:03:19;;;;;;;;;;;;;;;;;;5012693;28;19917;-93
2023/10/15 01:05:53;;;;;;;;;;;;;;;;;;5011039;28;19913;-93
2023/10/15 01:08:47;;;;;;;;;;;;;;;;;;5013260;28;19936;-92
2023/10/15 01:11:11;;;;;;;;;;;;;;;;;;5024398;28;19924;-92
2023/10/15 01:13:37;;;;;;;;;;;;;;;;;;5014255;28;19921;-93
2023/10/15 01:16:03;;;;;;;;;;;;;;;;;;5008477;28;19967;-90
2023/10/15 01:18:29;;;;;;;;;;;;;;;;;;5009520;28;19924;-92
2023/10/15 01:20:55;;;;;;;;;;;;;;;;;;5008284;28;19917;-92
2023/10/15 01:23:33;;;;;;;;;;;;;;;;;;5012043;28;20014;-90
2023/10/15 01:26:17;;;;;;;;;;;;;;;;;;5022029;28;20014;-91
2023/10/15 01:28:45;;;;;;;;;;;;;;;;;;5026953;28;19913;-93
2023/10/15 01:31:15;;;;;;;;;;;;;;;;;;5027075;28;19932;-93
2023/10/15 01:33:47;;;;;;;;;;;;;;;;;;5005343;28;21182;-91
2023/10/15 01:36:18;;;;;;;;;;;;;;;;;;5025673;28;19920;-91
2023/10/15 01:38:44;;;;;;;;;;;;;;;;;;5007345;28;20056;-90
2023/10/15 01:41:13;;;;;;;;;;;;;;;;;;5031094;28;19924;-91
2023/10/15 01:43:39;;;;;;;;;;;;;;;;;;5019979;28;19924;-90
2023/10/15 01:46:10;;;;;;;;;;;;;;;;;;5009933;28;19944;-89
2023/10/15 01:48:39;;;;;;;;;;;;;;;;;;5006749;28;19913;-90
2023/10/15 01:51:06;;;;;;;;;;;;;;;;;;5008928;28;19913;-89
2023/10/15 01:53:34;;;;;;;;;;;;;;;;;;5004627;28;20441;-89
2023/10/15 01:56:00;;;;;;;;;;;;;;;;;;5012393;28;19917;-90
2023/10/15 01:58:32;;;;;;;;;;;;;;;;;;5009201;28;20828;-90
2023/10/15 02:01:13;;;;;;;;;;;;;;;;;;5013812;28;19927;-90
2023/10/15 02:03:41;;;;;;;;;;;;;;;;;;5009497;28;19967;-90
2023/10/15 02:06:07;;;;;;;;;;;;;;;;;;5011402;28;19917;-90
2023/10/15 02:08:35;;;;;;;;;;;;;;;;;;5012849;28;20250;-91
2023/10/15 02:11:05;;;;;;;;;;;;;;;;;;5014620;28;19948;-90
2023/10/15 02:13:36;;;;;;;;;;;;;;;;;;5022461;28;20439;-90
2023/10/15 02:16:07;;;;;;;;;;;;;;;;;;5009387;28;20296;-90
2023/10/15 02:18:35;;;;;;;;;;;;;;;;;;5010665;28;19931;-91
2023/10/15 02:21:01;;;;;;;;;;;;;;;;;;5028483;28;19920;-90
2023/10/15 02:23:27;;;;;;;;;;;;;;;;;;5023419;28;19922;-91
2023/10/15 02:25:57;;;;;;;;;;;;;;;;;;5011255;28;20384;-91
2023/10/15 02:28:25;;;;;;;;;;;;;;;;;;5011864;28;20548;-90
2023/10/15 02:30:58;;;;;;;;;;;;;;;;;;5007622;28;19916;-90
2023/10/15 02:33:25;;;;;;;;;;;;;;;;;;5009362;28;20500;-90
2023/10/15 02:35:54;;;;;;;;;;;;;;;;;;5005630;28;20042;-90
2023/10/15 02:38:25;;;;;;;;;;;;;;;;;;5011260;28;20297;-90
2023/10/15 02:43:29;;;;;;;;;;;;;;;;;;5025363;28;20340;-90
2023/10/15 02:46:00;;;;;;;;;;;;;;;;;;5011219;28;19917;-90
2023/10/15 02:48:26;;;;;;;;;;;;;;;;;;5030006;28;19992;-91
2023/10/15 02:51:07;;;;;;;;;;;;;;;;;;5005794;28;19967;-91
2023/10/15 02:53:34;;;;;;;;;;;;;;;;;;5021836;28;19987;-91
2023/10/15 02:56:00;;;;;;;;;;;;;;;;;;5027768;28;19955;-91
2023/10/15 02:58:28;;;;;;;;;;;;;;;;;;5011047;28;19917;-89
2023/10/15 03:00:59;;;;;;;;;;;;;;;;;;5005273;28;19968;-89
2023/10/15 03:03:32;;;;;;;;;;;;;;;;;;5010942;28;20352;-89
2023/10/15 03:05:58;;;;;;;;;;;;;;;;;;5024453;28;19921;-89
2023/10/15 03:08:31;;;;;;;;;;;;;;;;;;5009842;28;19923;-89
2023/10/15 03:10:57;;;;;;;;;;;;;;;;;;5023076;28;19917;-90
2023/10/15 03:13:24;;;;;;;;;;;;;;;;;;5007496;28;19927;-90
2023/10/15 03:15:50;;;;;;;;;;;;;;;;;;5013264;28;20412;-90
2023/10/15 03:18:22;;;;;;;;;;;;;;;;;;5003627;28;19921;-88
2023/10/15 03:20:49;;;;;;;;;;;;;;;;;;5020605;28;19976;-90
2023/10/15 03:23:18;;;;;;;;;;;;;;;;;;5015012;28;19968;-89
2023/10/15 03:25:48;;;;;;;;;;;;;;;;;;5008939;28;20007;-90
2023/10/15 03:28:13;;;;;;;;;;;;;;;;;;5009076;28;19939;-89
2023/10/15 03:30:44;;;;;;;;;;;;;;;;;;5014944;28;19921;-90
2023/10/15 03:33:11;;;;;;;;;;;;;;;;;;5009457;28;19917;-90
2023/10/15 03:35:39;;;;;;;;;;;;;;;;;;5008522;28;19932;-90
2023/10/15 03:38:13;;;;;;;;;;;;;;;;;;5011204;28;19917;-91
2023/10/15 03:43:15;;;;;;;;;;;;;;;;;;5027975;28;20377;-90
2023/10/15 03:45:50;;;;;;;;;;;;;;;;;;5009312;28;20392;-91
2023/10/15 03:48:16;;;;;;;;;;;;;;;;;;5001985;28;19913;-90
2023/10/15 03:50:53;;;;;;;;;;;;;;;;;;5005258;28;19917;-90
2023/10/15 03:53:20;;;;;;;;;;;;;;;;;;5010590;28;20217;-89
2023/10/15 03:55:49;;;;;;;;;;;;;;;;;;5007098;28;19921;-90
2023/10/15 03:58:15;;;;;;;;;;;;;;;;;;5014406;28;20008;-91
2023/10/15 04:00:46;;;;;;;;;;;;;;;;;;5011546;28;19964;-90
2023/10/15 04:03:22;;;;;;;;;;;;;;;;;;5009737;28;19918;-90
2023/10/15 04:05:48;;;;;;;;;;;;;;;;;;5005147;28;20399;-91
2023/10/15 04:08:18;;;;;;;;;;;;;;;;;;5009965;28;19916;-88
2023/10/15 04:10:44;;;;;;;;;;;;;;;;;;5008762;28;19917;-88
2023/10/15 04:13:10;;;;;;;;;;;;;;;;;;5011152;28;19924;-89
2023/10/15 04:15:36;;;;;;;;;;;;;;;;;;5004848;28;20386;-89
2023/10/15 04:18:02;;;;;;;;;;;;;;;;;;5007574;28;19939;-88
2023/10/15 04:20:35;;;;;;;;;;;;;;;;;;5004127;28;19917;-88
2023/10/15 04:23:01;;;;;;;;;;;;;;;;;;5005377;28;21139;-87
2023/10/15 04:25:32;;;;;;;;;;;;;;;;;;5001471;28;20011;-87
2023/10/15 04:28:08;;;;;;;;;;;;;;;;;;4981542;28;19922;-88
2023/10/15 04:30:36;;;;;;;;;;;;;;;;;;4977959;28;19961;-87
2023/10/15 04:33:02;;;;;;;;;;;;;;;;;;4998582;28;19922;-88
2023/10/15 04:35:32;;;;;;;;;;;;;;;;;;4982910;28;19925;-88
2023/10/15 04:37:59;;;;;;;;;;;;;;;;;;5005973;28;21240;-88
2023/10/15 04:40:25;;;;;;;;;;;;;;;;;;5009216;28;19924;-89
2023/10/15 04:42:51;;;;;;;;;;;;;;;;;;4988654;28;19913;-87
2023/10/15 04:45:23;;;;;;;;;;;;;;;;;;4990323;28;19987;-88
2023/10/15 04:47:55;;;;;;;;;;;;;;;;;;4986403;28;20260;-89
2023/10/15 04:50:21;;;;;;;;;;;;;;;;;;5005646;28;19949;-88
2023/10/15 04:52:47;;;;;;;;;;;;;;;;;;4989854;28;20483;-88
2023/10/15 04:55:16;;;;;;;;;;;;;;;;;;4988348;28;20297;-89
2023/10/15 04:57:42;;;;;;;;;;;;;;;;;;5003821;28;19941;-88
2023/10/15 05:00:09;;;;;;;;;;;;;;;;;;4987521;28;20364;-87
2023/10/15 05:02:35;;;;;;;;;;;;;;;;;;4985454;28;19913;-89
2023/10/15 05:05:01;;;;;;;;;;;;;;;;;;5003735;28;20004;-88
2023/10/15 05:07:27;;;;;;;;;;;;;;;;;;4993176;28;19917;-88
2023/10/15 05:09:53;;;;;;;;;;;;;;;;;;5003670;28;19973;-88
2023/10/15 05:12:25;;;;;;;;;;;;;;;;;;5003654;28;20274;-88
2023/10/15 05:14:51;;;;;;;;;;;;;;;;;;5002607;28;19922;-88
2023/10/15 05:17:17;;;;;;;;;;;;;;;;;;4985118;28;19924;-88
2023/10/15 05:19:43;;;;;;;;;;;;;;;;;;4982658;28;19917;-90
2023/10/15 05:22:09;;;;;;;;;;;;;;;;;;4990021;28;19953;-90
2023/10/15 05:24:35;;;;;;;;;;;;;;;;;;5015164;28;20024;-89
2023/10/15 05:27:01;;;;;;;;;;;;;;;;;;5007998;28;20064;-89
2023/10/15 05:29:26;;;;;;;;;;;;;;;;;;5012279;28;19916;-89
2023/10/15 05:31:53;;;;;;;;;;;;;;;;;;5008092;28;19920;-88
2023/10/15 05:34:20;;;;;;;;;;;;;;;;;;5009243;28;19921;-88
2023/10/15 05:36:46;;;;;;;;;;;;;;;;;;5027689;28;20472;-88
2023/10/15 05:39:15;;;;;;;;;;;;;;;;;;5025312;28;19929;-88
2023/10/15 05:41:42;;;;;;;;;;;;;;;;;;5023464;28;19920;-89
2023/10/15 05:44:08;;;;;;;;;;;;;;;;;;5012765;28;19921;-88
2023/10/15 05:46:34;;;;;;;;;;;;;;;;;;5009565;28;20348;-87
2023/10/15 05:49:00;;;;;;;;;;;;;;;;;;5023676;28;19967;-89
2023/10/15 05:51:26;;;;;;;;;;;;;;;;;;5001312;28;19917;-88
2023/10/15 05:53:52;;;;;;;;;;;;;;;;;;5011545;28;19917;-88
2023/10/15 05:56:18;;;;;;;;;;;;;;;;;;5024101;28;19917;-88
2023/10/15 05:58:44;;;;;;;;;;;;;;;;;;5006288;28;19959;-87
2023/10/15 06:01:10;;;;;;;;;;;;;;;;;;5007746;28;19917;-88
2023/10/15 06:03:37;;;;;;;;;;;;;;;;;;5028234;28;20400;-88
2023/10/15 06:06:05;;;;;;;;;;;;;;;;;;5010080;28;19921;-87
2023/10/15 06:08:31;;;;;;;;;;;;;;;;;;5012574;28;19917;-89
2023/10/15 06:10:57;;;;;;;;;;;;;;;;;;5009168;28;20068;-88
2023/10/15 06:13:23;;;;;;;;;;;;;;;;;;5010159;28;20317;-89
2023/10/15 06:15:49;;;;;;;;;;;;;;;;;;5012717;28;19925;-86
2023/10/15 06:18:15;;;;;;;;;;;;;;;;;;5008537;28;20277;-88
2023/10/15 06:20:41;;;;;;;;;;;;;;;;;;5005037;28;19914;-88
2023/10/15 06:23:08;;;;;;;;;;;;;;;;;;5005331;28;19925;-88
2023/10/15 06:25:35;;;;;;;;;;;;;;;;;;4987322;28;19914;-87
2023/10/15 06:28:01;;;;;;;;;;;;;;;;;;5002367;28;19914;-89
2023/10/15 06:30:27;;;;;;;;;;;;;;;;;;4987421;28;20008;-89
2023/10/15 06:32:53;;;;;;;;;;;;;;;;;;4990690;28;19953;-90
2023/10/15 06:35:19;;;;;;;;;;;;;;;;;;4982237;28;19956;-89
2023/10/15 06:37:45;;;;;;;;;;;;;;;;;;4987736;28;19913;-88
2023/10/15 06:40:11;;;;;;;;;;;;;;;;;;4991732;28;19929;-89
2023/10/15 06:42:37;;;;;;;;;;;;;;;;;;5001586;28;19917;-89
2023/10/15 06:45:06;;;;;;;;;;;;;;;;;;4990578;28;19928;-89
2023/10/15 06:47:32;;;;;;;;;;;;;;;;;;4990794;28;19920;-88
2023/10/15 06:49:58;;;;;;;;;;;;;;;;;;4990638;28;19926;-88
2023/10/15 06:52:24;;;;;;;;;;;;;;;;;;4990469;28;19949;-89
2023/10/15 06:54:50;;;;;;;;;;;;;;;;;;4989049;28;20015;-89
2023/10/15 06:57:16;;;;;;;;;;;;;;;;;;4989740;28;19921;-89
2023/10/15 06:59:42;;;;;;;;;;;;;;;;;;4989514;28;19997;-88
2023/10/15 07:02:08;;;;;;;;;;;;;;;;;;4989089;28;20027;-88
2023/10/15 07:04:34;;;;;;;;;;;;;;;;;;4989783;28;19913;-88
2023/10/15 07:07:06;;;;;;;;;;;;;;;;;;4986926;28;19920;-88
2023/10/15 07:09:32;;;;;;;;;;;;;;;;;;5004558;28;20329;-88
2023/10/15 07:11:59;;;;;;;;;;;;;;;;;;4989156;28;19964;-88
2023/10/15 07:14:25;;;;;;;;;;;;;;;;;;5005445;28;19921;-88
2023/10/15 07:16:51;;;;;;;;;;;;;;;;;;4987862;28;19921;-88
2023/10/15 07:19:25;;;;;;;;;;;;;;;;;;4994657;28;22819;-88
2023/10/15 07:21:55;;;;;;;;;;;;;;;;;;5007846;28;19952;-88
2023/10/15 07:24:22;;;;;;;;;;;;;;;;;;5016808;28;20181;-88
2023/10/15 07:26:48;;;;;;;;;;;;;;;;;;5004238;28;19917;-88
2023/10/15 07:29:14;;;;;;;;;;;;;;;;;;5023101;28;20303;-88
2023/10/15 07:31:40;;;;;;;;;;;;;;;;;;5023533;28;19967;-88
2023/10/15 07:34:06;;;;;;;;;;;;;;;;;;5008288;28;19913;-88
2023/10/15 07:36:32;;;;;;;;;;;;;;;;;;5008516;28;19920;-89
2023/10/15 07:38:58;;;;;;;;;;;;;;;;;;5010243;28;20397;-89
2023/10/15 07:41:24;;;;;;;;;;;;;;;;;;5006734;28;20391;-89
2023/10/15 07:43:50;;;;;;;;;;;;;;;;;;5017641;28;19914;-90
2023/10/15 07:46:18;;;;;;;;;;;;;;;;;;5008745;28;20356;-89
2023/10/15 07:48:45;;;;;;;;;;;;;;;;;;5022728;28;20496;-90
2023/10/15 07:51:11;;;;;;;;;;;;;;;;;;5007271;28;19921;-90
2023/10/15 07:53:37;;;;;;;;;;;;;;;;;;5027788;28;20293;-89
2023/10/15 07:56:03;;;;;;;;;;;;;;;;;;5007513;28;19926;-90
2023/10/15 07:58:29;;;;;;;;;;;;;;;;;;5014594;28;19913;-90
2023/10/15 08:00:55;;;;;;;;;;;;;;;;;;5010494;28;19944;-90
2023/10/15 08:03:21;;;;;;;;;;;;;;;;;;5012408;28;19913;-89
2023/10/15 08:05:48;;;;;;;;;;;;;;;;;;5012465;28;19928;-90
2023/10/15 08:08:14;;;;;;;;;;;;;;;;;;5011421;28;19968;-90
2023/10/15 08:10:41;;;;;;;;;;;;;;;;;;5014840;28;19975;-90
2023/10/15 08:13:08;;;;;;;;;;;;;;;;;;5011532;28;20046;-90
2023/10/15 08:15:34;;;;;;;;;;;;;;;;;;5009809;28;20369;-90
2023/10/15 08:18:01;;;;;;;;;;;;;;;;;;5014048;28;19924;-90
2023/10/15 08:20:28;;;;;;;;;;;;;;;;;;5013277;28;19917;-90
2023/10/15 08:22:54;;;;;;;;;;;;;;;;;;5008758;28;19912;-90
2023/10/15 08:25:23;;;;;;;;;;;;;;;;;;5010818;28;19986;-90
2023/10/15 08:27:49;;;;;;;;;;;;;;;;;;5009849;28;19913;-90
2023/10/15 08:30:15;;;;;;;;;;;;;;;;;;5008790;28;19917;-90
2023/10/15 08:32:41;;;;;;;;;;;;;;;;;;5015074;28;19933;-90
2023/10/15 08:35:08;;;;;;;;;;;;;;;;;;5011651;28;19921;-90
2023/10/15 08:37:35;;;;;;;;;;;;;;;;;;5029190;28;20018;-89
2023/10/15 08:40:04;;;;;;;;;;;;;;;;;;5029630;28;19913;-88
2023/10/15 08:42:30;;;;;;;;;;;;;;;;;;5004642;28;19975;-88
2023/10/15 08:44:56;;;;;;;;;;;;;;;;;;5013288;28;19983;-89
2023/10/15 08:47:22;;;;;;;;;;;;;;;;;;5010971;28;19914;-88
2023/10/15 08:49:48;;;;;;;;;;;;;;;;;;5022729;28;19927;-90
2023/10/15 08:52:14;;;;;;;;;;;;;;;;;;5015874;28;19913;-90
2023/10/15 08:54:40;;;;;;;;;;;;;;;;;;5018388;28;19918;-89
2023/10/15 08:57:09;;;;;;;;;;;;;;;;;;5022137;28;19924;-89
2023/10/15 08:59:35;;;;;;;;;;;;;;;;;;5010570;28;19917;-90
2023/10/15 09:02:02;;;;;;;;;;;;;;;;;;5013907;28;20412;-89
2023/10/15 09:04:28;;;;;;;;;;;;;;;;;;5015345;28;19921;-90
2023/10/15 09:06:54;;;;;;;;;;;;;;;;;;5014597;28;20361;-91
2023/10/15 09:09:20;;;;;;;;;;;;;;;;;;5009856;28;20381;-90
2023/10/15 09:11:46;;;;;;;;;;;;;;;;;;5025285;28;19913;-90
2023/10/15 09:14:15;;;;;;;;;;;;;;;;;;5011049;28;19986;-90
2023/10/15 09:16:41;;;;;;;;;;;;;;;;;;5013756;28;19960;-90
2023/10/15 09:19:07;;;;;;;;;;;;;;;;;;5010305;28;19945;-90
2023/10/15 09:21:36;;;;;;;;;;;;;;;;;;5013533;28;19913;-90
2023/10/15 09:24:02;;;;;;;;;;;;;;;;;;5013476;28;19924;-90
2023/10/15 09:26:28;;;;;;;;;;;;;;;;;;5017026;28;19916;-90
2023/10/15 09:28:54;;;;;;;;;;;;;;;;;;5012354;28;19957;-90
2023/10/15 09:31:20;;;;;;;;;;;;;;;;;;5010808;28;19952;-90
2023/10/15 09:33:51;;;;;;;;;;;;;;;;;;5012423;28;19960;-90
2023/10/15 09:36:17;;;;;;;;;;;;;;;;;;5007202;28;19920;-90
2023/10/15 09:38:43;;;;;;;;;;;;;;;;;;5007008;28;20015;-90
2023/10/15 09:41:10;;;;;;;;;;;;;;;;;;5010370;28;20440;-89
2023/10/15 09:43:36;;;;;;;;;;;;;;;;;;5015586;28;19913;-89
2023/10/15 09:46:03;;;;;;;;;;;;;;;;;;5025888;28;19917;-89
2023/10/15 09:48:29;;;;;;;;;;;;;;;;;;5014250;28;20040;-89
2023/10/15 09:50:59;;;;;;;;;;;;;;;;;;5022734;28;20014;-89
2023/10/15 09:53:27;;;;;;;;;;;;;;;;;;5009739;28;20658;-89
2023/10/15 09:55:53;;;;;;;;;;;;;;;;;;5013036;28;19925;-89
2023/10/15 09:58:19;;;;;;;;;;;;;;;;;;5011496;28;19917;-89
2023/10/15 10:03:17;;;;;;;;;;;;;;;;;;5029323;28;19928;-89
2023/10/15 10:05:49;;;;;;;;;;;;;;;;;;5008862;28;19917;-89
2023/10/15 10:08:16;;;;;;;;;;;;;;;;;;5028404;28;19949;-87
2023/10/15 10:10:42;;;;;;;;;;;;;;;;;;5016211;28;19913;-89
2023/10/15 10:13:08;;;;;;;;;;;;;;;;;;5010495;28;19929;-88
2023/10/15 10:15:34;;;;;;;;;;;;;;;;;;5009050;28;19917;-89
2023/10/15 10:18:00;;;;;;;;;;;;;;;;;;5025514;28;19928;-89
2023/10/15 10:20:26;;;;;;;;;;;;;;;;;;5009958;28;19924;-88
2023/10/15 10:22:51;;;;;;;;;;;;;;;;;;5010900;28;19917;-88
2023/10/15 10:25:17;;;;;;;;;;;;;;;;;;5004027;28;19928;-89
2023/10/15 10:27:43;;;;;;;;;;;;;;;;;;5022183;28;19913;-88
2023/10/15 10:30:10;;;;;;;;;;;;;;;;;;5025353;28;19924;-89
2023/10/15 10:32:37;;;;;;;;;;;;;;;;;;5006593;28;20564;-88
2023/10/15 10:35:07;;;;;;;;;;;;;;;;;;5025793;28;19925;-88
2023/10/15 10:37:33;;;;;;;;;;;;;;;;;;5003181;28;19914;-88
2023/10/15 10:39:59;;;;;;;;;;;;;;;;;;5021129;28;20415;-88
2023/10/15 10:42:26;;;;;;;;;;;;;;;;;;5009941;28;20020;-88
2023/10/15 10:44:53;;;;;;;;;;;;;;;;;;5009421;28;19917;-89
2023/10/15 10:47:19;;;;;;;;;;;;;;;;;;4999560;28;19917;-90
2023/10/15 10:49:45;;;;;;;;;;;;;;;;;;5006592;28;20358;-89
2023/10/15 10:52:14;;;;;;;;;;;;;;;;;;5008250;28;19928;-89
2023/10/15 10:54:40;;;;;;;;;;;;;;;;;;5003344;28;20290;-89
2023/10/15 10:57:10;;;;;;;;;;;;;;;;;;5024083;28;19928;-89
2023/10/15 10:59:36;;;;;;;;;;;;;;;;;;5024056;28;19952;-89
2023/10/15 11:02:04;;;;;;;;;;;;;;;;;;5024419;28;19963;-89
2023/10/15 11:04:30;;;;;;;;;;;;;;;;;;5009591;28;19913;-89
2023/10/15 11:06:56;;;;;;;;;;;;;;;;;;5010691;28;20020;-89
2023/10/15 11:09:25;;;;;;;;;;;;;;;;;;5012942;28;19940;-90
2023/10/15 11:11:51;;;;;;;;;;;;;;;;;;5004943;28;19913;-90
2023/10/15 11:14:23;;;;;;;;;;;;;;;;;;5008456;28;19921;-91
2023/10/15 11:16:50;;;;;;;;;;;;;;;;;;5022339;28;20244;-90
2023/10/15 11:19:22;;;;;;;;;;;;;;;;;;5009588;28;19924;-90
2023/10/15 11:21:48;;;;;;;;;;;;;;;;;;5007530;28;20373;-89
2023/10/15 11:24:14;;;;;;;;;;;;;;;;;;5011350;28;19959;-90
2023/10/15 11:26:41;;;;;;;;;;;;;;;;;;5009613;28;20198;-89
2023/10/15 11:29:07;;;;;;;;;;;;;;;;;;5011772;28;19920;-90
2023/10/15 11:31:34;;;;;;;;;;;;;;;;;;5010752;28;20029;-90
2023/10/15 11:34:00;;;;;;;;;;;;;;;;;;5006498;28;20424;-90
2023/10/15 11:36:27;;;;;;;;;;;;;;;;;;5010344;28;19960;-90
2023/10/15 11:38:53;;;;;;;;;;;;;;;;;;5009080;28;19917;-90
2023/10/15 11:41:19;;;;;;;;;;;;;;;;;;5026329;28;19917;-91
2023/10/15 11:43:45;;;;;;;;;;;;;;;;;;5013086;28;19913;-90
2023/10/15 11:46:11;;;;;;;;;;;;;;;;;;5015193;28;20417;-90
2023/10/15 11:48:40;;;;;;;;;;;;;;;;;;5013885;28;20034;-90
2023/10/15 11:51:08;;;;;;;;;;;;;;;;;;5012184;28;19917;-90
2023/10/15 11:53:34;;;;;;;;;;;;;;;;;;5014944;28;20421;-91
2023/10/15 11:56:02;;;;;;;;;;;;;;;;;;5010416;28;19925;-90
2023/10/15 11:58:31;;;;;;;;;;;;;;;;;;5011461;28;19925;-90
2023/10/15 12:00:58;;;;;;;;;;;;;;;;;;5008173;28;19991;-90
2023/10/15 12:03:24;;;;;;;;;;;;;;;;;;5014188;28;19924;-90
2023/10/15 12:05:51;;;;;;;;;;;;;;;;;;5030146;28;19928;-90
2023/10/15 12:08:21;;;;;;;;;;;;;;;;;;5013646;28;19941;-90
2023/10/15 12:10:47;;;;;;;;;;;;;;;;;;5015247;28;19917;-90
2023/10/15 12:13:16;;;;;;;;;;;;;;;;;;5013788;28;19928;-91
2023/10/15 12:15:42;;;;;;;;;;;;;;;;;;5013913;28;20297;-91
2023/10/15 12:18:08;;;;;;;;;;;;;;;;;;5015276;28;19962;-90
2023/10/15 12:20:34;;;;;;;;;;;;;;;;;;5016968;28;20223;-90
2023/10/15 12:23:00;;;;;;;;;;;;;;;;;;5012950;28;20380;-90
2023/10/15 12:25:26;;;;;;;;;;;;;;;;;;5012069;28;19921;-91
2023/10/15 12:27:52;;;;;;;;;;;;;;;;;;5013112;28;19967;-93
2023/10/15 12:30:27;;;;;;;;;;;;;;;;;;5008493;28;19925;-94
2023/10/15 12:32:58;;;;;;;;;;;;;;;;;;5010247;28;19922;-93
2023/10/15 12:35:24;;;;;;;;;;;;;;;;;;5020349;28;20653;-92
2023/10/15 12:37:50;;;;;;;;;;;;;;;;;;5015657;28;19945;-93
2023/10/15 12:40:21;;;;;;;;;;;;;;;;;;5010874;28;20045;-93
2023/10/15 12:42:47;;;;;;;;;;;;;;;;;;5008974;28;19914;-93
2023/10/15 12:45:13;;;;;;;;;;;;;;;;;;5011413;28;19924;-92
2023/10/15 12:47:39;;;;;;;;;;;;;;;;;;5012332;28;19917;-93
2023/10/15 12:50:07;;;;;;;;;;;;;;;;;;5009534;28;20012;-93
2023/10/15 12:52:35;;;;;;;;;;;;;;;;;;5010444;28;19918;-93
2023/10/15 12:55:00;;;;;;;;;;;;;;;;;;5005720;28;19918;-93
2023/10/15 12:57:26;;;;;;;;;;;;;;;;;;5021609;28;19961;-92
2023/10/15 12:59:52;;;;;;;;;;;;;;;;;;5018108;28;19979;-93
2023/10/15 13:02:20;;;;;;;;;;;;;;;;;;5012877;28;20004;-94
2023/10/15 13:04:46;;;;;;;;;;;;;;;;;;5007307;28;19925;-92
2023/10/15 13:07:12;;;;;;;;;;;;;;;;;;5009272;28;19921;-93
2023/10/15 13:09:38;;;;;;;;;;;;;;;;;;5018395;28;19914;-93
2023/10/15 13:12:09;;;;;;;;;;;;;;;;;;5006544;28;19917;-93
2023/10/15 13:14:35;;;;;;;;;;;;;;;;;;5003956;28;20297;-93
2023/10/15 13:17:01;;;;;;;;;;;;;;;;;;5003689;28;19921;-93
2023/10/15 13:19:27;;;;;;;;;;;;;;;;;;5011452;28;19983;-93
2023/10/15 13:21:54;;;;;;;;;;;;;;;;;;5006711;28;19998;-93
2023/10/15 13:24:19;;;;;;;;;;;;;;;;;;5025083;28;20362;-93
2023/10/15 13:26:52;;;;;;;;;;;;;;;;;;5015137;28;19917;-93
2023/10/15 13:29:18;;;;;;;;;;;;;;;;;;5012433;28;19921;-90
2023/10/15 13:31:43;;;;;;;;;;;;;;;;;;5007451;28;20282;-90
2023/10/15 13:34:09;;;;;;;;;;;;;;;;;;5009437;28;19917;-91
2023/10/15 13:36:35;;;;;;;;;;;;;;;;;;5009030;28;20514;-90
2023/10/15 13:39:01;;;;;;;;;;;;;;;;;;5009140;28;19922;-90
2023/10/15 13:41:28;;;;;;;;;;;;;;;;;;5008986;28;19942;-90
2023/10/15 13:43:54;;;;;;;;;;;;;;;;;;5010547;28;19920;-90
2023/10/15 13:46:20;;;;;;;;;;;;;;;;;;5007249;28;19942;-91
2023/10/15 13:48:53;;;;;;;;;;;;;;;;;;5005299;28;19948;-90
2023/10/15 13:51:19;;;;;;;;;;;;;;;;;;5006919;28;19917;-91
2023/10/15 13:53:45;;;;;;;;;;;;;;;;;;5006040;28;19928;-90
2023/10/15 13:56:12;;;;;;;;;;;;;;;;;;5006455;28;19925;-91
2023/10/15 13:58:38;;;;;;;;;;;;;;;;;;5011685;28;20003;-91
2023/10/15 14:01:04;;;;;;;;;;;;;;;;;;5012119;28;20380;-90
2023/10/15 14:03:30;;;;;;;;;;;;;;;;;;5009089;28;19925;-90
2023/10/15 14:05:56;;;;;;;;;;;;;;;;;;5008638;28;20090;-91
2023/10/15 14:08:22;;;;;;;;;;;;;;;;;;5011593;28;19936;-90
2023/10/15 14:10:50;;;;;;;;;;;;;;;;;;5005893;28;20372;-89
2023/10/15 14:13:16;;;;;;;;;;;;;;;;;;5006476;28;20710;-90
2023/10/15 14:15:42;;;;;;;;;;;;;;;;;;5005990;28;19925;-90
2023/10/15 14:18:08;;;;;;;;;;;;;;;;;;5010456;28;19921;-91
2023/10/15 14:20:37;;;;;;;;;;;;;;;;;;5004748;28;19917;-89
2023/10/15 14:23:03;;;;;;;;;;;;;;;;;;5010332;28;19914;-90
2023/10/15 14:25:29;;;;;;;;;;;;;;;;;;5007378;28;20304;-90
2023/10/15 14:27:56;;;;;;;;;;;;;;;;;;4991825;28;19952;-90
2023/10/15 14:30:22;;;;;;;;;;;;;;;;;;5008477;28;20383;-91
2023/10/15 14:32:47;;;;;;;;;;;;;;;;;;5003370;28;19913;-91
2023/10/15 14:35:14;;;;;;;;;;;;;;;;;;4985213;28;19925;-92
2023/10/15 14:37:40;;;;;;;;;;;;;;;;;;5004861;28;19924;-94
2023/10/15 14:40:07;;;;;;;;;;;;;;;;;;5006856;28;19917;-93
2023/10/15 14:42:33;;;;;;;;;;;;;;;;;;5005180;28;19927;-94
2023/10/15 14:44:59;;;;;;;;;;;;;;;;;;4991032;28;20003;-93
2023/10/15 14:47:26;;;;;;;;;;;;;;;;;;5005908;28;19924;-94
2023/10/15 14:49:52;;;;;;;;;;;;;;;;;;5007033;28;19993;-91
2023/10/15 14:52:18;;;;;;;;;;;;;;;;;;5007477;28;20150;-91
2023/10/15 14:54:44;;;;;;;;;;;;;;;;;;5001248;28;20330;-91
2023/10/15 14:57:10;;;;;;;;;;;;;;;;;;5004896;28;20280;-92
2023/10/15 14:59:36;;;;;;;;;;;;;;;;;;5008858;28;19922;-91
2023/10/15 15:02:03;;;;;;;;;;;;;;;;;;5005887;28;19984;-90
2023/10/15 15:04:29;;;;;;;;;;;;;;;;;;5009994;28;19959;-91
2023/10/15 15:06:55;;;;;;;;;;;;;;;;;;5004120;28;19921;-91
2023/10/15 15:09:22;;;;;;;;;;;;;;;;;;4994532;28;19914;-91
2023/10/15 15:11:49;;;;;;;;;;;;;;;;;;4990171;28;19921;-91
2023/10/15 15:14:18;;;;;;;;;;;;;;;;;;4985438;28;20198;-91
2023/10/15 15:16:44;;;;;;;;;;;;;;;;;;5004333;28;19928;-91
2023/10/15 15:19:14;;;;;;;;;;;;;;;;;;4987850;28;20290;-91
2023/10/15 15:21:39;;;;;;;;;;;;;;;;;;5004205;28;19913;-90
2023/10/15 15:24:05;;;;;;;;;;;;;;;;;;5008537;28;19939;-91
2023/10/15 15:26:31;;;;;;;;;;;;;;;;;;5006825;28;19944;-91
2023/10/15 15:28:57;;;;;;;;;;;;;;;;;;5004171;28;19917;-92
2023/10/15 15:31:23;;;;;;;;;;;;;;;;;;5008077;28;20055;-90
2023/10/15 15:33:49;;;;;;;;;;;;;;;;;;5007982;28;20147;-91
2023/10/15 15:36:15;;;;;;;;;;;;;;;;;;5012632;28;19943;-91
2023/10/15 15:38:41;;;;;;;;;;;;;;;;;;5006676;28;19924;-91
2023/10/15 15:41:08;;;;;;;;;;;;;;;;;;5009853;28;20481;-91
2023/10/15 15:43:35;;;;;;;;;;;;;;;;;;5003916;28;19960;-91
2023/10/15 15:46:01;;;;;;;;;;;;;;;;;;5006806;28;19917;-91
2023/10/15 15:48:27;;;;;;;;;;;;;;;;;;5008175;28;20402;-91
2023/10/15 15:50:53;;;;;;;;;;;;;;;;;;5012111;28;19913;-91
2023/10/15 15:53:25;;;;;;;;;;;;;;;;;;5012045;28;19952;-91
2023/10/15 15:55:51;;;;;;;;;;;;;;;;;;5011791;28;20381;-91
2023/10/15 15:58:19;;;;;;;;;;;;;;;;;;5012192;28;19925;-91
2023/10/15 16:00:46;;;;;;;;;;;;;;;;;;5011529;28;19924;-90
2023/10/15 16:03:12;;;;;;;;;;;;;;;;;;5011034;28;19921;-91
2023/10/15 16:05:38;;;;;;;;;;;;;;;;;;5007453;28;19966;-91
2023/10/15 16:08:05;;;;;;;;;;;;;;;;;;5004953;28;20425;-91
2023/10/15 16:10:31;;;;;;;;;;;;;;;;;;5011167;28;20012;-91
2023/10/15 16:12:58;;;;;;;;;;;;;;;;;;5008589;28;20042;-91
2023/10/15 16:15:24;;;;;;;;;;;;;;;;;;5006489;28;19928;-91
2023/10/15 16:17:50;;;;;;;;;;;;;;;;;;5008638;28;19921;-91
2023/10/15 16:20:17;;;;;;;;;;;;;;;;;;5005633;28;19913;-90
2023/10/15 16:22:43;;;;;;;;;;;;;;;;;;5011978;28;20193;-91
2023/10/15 16:25:10;;;;;;;;;;;;;;;;;;5011185;28;19917;-91
2023/10/15 16:27:36;;;;;;;;;;;;;;;;;;5004055;28;19917;-90
2023/10/15 16:30:03;;;;;;;;;;;;;;;;;;5011539;28;19920;-91
2023/10/15 16:32:29;;;;;;;;;;;;;;;;;;5011549;28;19926;-90
2023/10/15 16:34:55;;;;;;;;;;;;;;;;;;5014200;28;20441;-90
2023/10/15 16:37:21;;;;;;;;;;;;;;;;;;5031253;28;19999;-91
2023/10/15 16:39:47;;;;;;;;;;;;;;;;;;5011464;28;20048;-91
2023/10/15 16:42:13;;;;;;;;;;;;;;;;;;5014244;28;20015;-90
2023/10/15 16:44:39;;;;;;;;;;;;;;;;;;5023682;28;20011;-91
2023/10/15 16:47:05;;;;;;;;;;;;;;;;;;5014909;28;20054;-91
2023/10/15 16:49:31;;;;;;;;;;;;;;;;;;5009466;28;20241;-91
2023/10/15 16:51:57;;;;;;;;;;;;;;;;;;5012966;28;19914;-91
2023/10/15 16:54:23;;;;;;;;;;;;;;;;;;5008590;28;20396;-90